Latest Weather Observations for Gatton

IDQ60801

Issued at 7:36 pm EST Monday 22 December 2014 (issued every 30 minutes, with the page automatically refreshed every 10 minutes)

About weather observations | Map of weather stations | Latest weather observations for QLD | Other Formats
Station Details ID: 040082 Name: UNIVERSITY OF QUEENSLAND GATTON Lat: -27.54 Lon: 152.34 Height: 89.0 m
Data from the previous 72 hours. | See also: Recent months at Gatton
Date/Time
EST
Temp
°C
App
Temp
°C
Dew
Point
Rel
Hum
%
Delta-T
°C
Wind Press
QNH
hPa
Press
MSL
hPa
Rain
since 9 am
mm
Dir
 
Spd
km/h
Gust
km/h
Spd
kts
Gust
kts
22/07:30pm 23.7 21.7 15.5 60 4.9 ENE 20 28 11 15 - - 0.0
22/07:00pm 24.1 21.6 14.2 54 5.9 ENE 20 26 11 14 - - 0.0
22/06:30pm 25.4 21.7 15.1 53 6.2 E 28 35 15 19 - - 0.0
22/06:00pm 26.5 23.9 15.8 51 6.6 ENE 24 32 13 17 - - 0.0
22/05:30pm 27.3 24.4 16.0 50 7.0 ENE 26 37 14 20 - - 0.0
22/05:00pm 27.7 24.5 15.4 47 7.5 ENE 26 33 14 18 - - 0.0
22/04:30pm 28.6 25.4 15.2 44 8.2 ENE 26 32 14 17 - - 0.0
22/04:00pm 29.2 27.7 15.3 42 8.5 ENE 17 22 9 12 - - 0.0
22/03:30pm 29.2 26.0 14.2 40 9.1 ENE 24 35 13 19 - - 0.0
22/03:00pm 29.1 26.7 14.5 41 8.9 ENE 20 35 11 19 - - 0.0
22/02:30pm 29.7 28.8 15.8 43 8.6 ENE 15 30 8 16 - - 0.0
22/02:00pm 29.0 26.8 14.8 42 8.7 ENE 20 28 11 15 - - 0.0
22/01:30pm 29.1 27.6 16.3 46 8.0 ENE 19 28 10 15 - - 0.0
22/01:00pm 29.3 27.8 15.4 42 8.6 E 17 28 9 15 - - 0.0
22/12:30pm 29.3 27.7 16.1 44 8.2 ENE 19 28 10 15 - - 0.0
22/12:00pm 29.3 28.6 16.5 46 8.0 E 15 19 8 10 - - 0.0
22/11:30am 28.4 28.3 16.0 47 7.7 ESE 11 20 6 11 - - 0.0
22/11:00am 27.1 26.2 14.8 47 7.4 SE 13 20 7 11 - - 0.0
22/10:30am 27.1 27.2 16.4 52 6.6 ENE 11 22 6 12 - - 0.0
22/10:00am 26.6 25.7 15.9 51 6.6 E 15 22 8 12 - - 0.0
22/09:30am 25.5 24.9 16.6 58 5.5 E 15 20 8 11 - - 0.0
22/09:00am 25.0 23.9 16.4 59 5.3 E 17 20 9 11 - - 0.0
22/08:30am 24.8 24.4 16.2 58 5.3 ESE 13 20 7 11 - - 0.0
22/08:00am 24.3 25.1 17.3 65 4.4 ESE 9 15 5 8 - - 0.0
22/07:30am 24.0 22.9 16.3 62 4.7 E 17 24 9 13 - - 0.0
22/07:00am 23.7 23.5 16.7 65 4.3 E 13 17 7 9 - - 0.0
22/06:30am 23.2 23.3 16.5 66 4.1 E 11 17 6 9 - - 0.0
22/06:00am 22.4 23.5 16.7 70 3.5 ESE 6 7 3 4 - - 0.0
22/05:30am 20.8 21.8 16.8 78 2.4 SE 7 9 4 5 - - 0.0
22/05:00am 20.3 20.8 16.5 79 2.3 SE 9 13 5 7 - - 0.0
22/04:30am 21.3 22.2 16.7 75 2.8 SSE 7 9 4 5 - - 0.0
22/04:00am 21.5 22.1 16.9 75 2.8 SSE 9 11 5 6 - - 0.0
22/03:30am 21.5 22.6 17.1 76 2.7 SE 7 9 4 5 - - 0.0
22/03:00am 21.6 22.7 17.0 75 2.8 ESE 7 9 4 5 - - 0.0
22/02:30am 21.6 22.9 17.2 76 2.7 E 6 7 3 4 - - 0.0
22/02:00am 21.8 22.5 17.0 74 2.9 ESE 9 13 5 7 - - 0.0
22/01:30am 22.0 21.9 16.9 73 3.1 ESE 13 17 7 9 - - 0.0
22/01:00am 22.3 21.8 17.0 72 3.3 ESE 15 20 8 11 - - 0.0
22/12:30am 22.3 22.3 17.2 73 3.1 ESE 13 19 7 10 - - 0.0
22/12:00am 22.0 22.6 17.6 76 2.7 ESE 11 17 6 9 - - 0.0
 
Date/Time
EST
Temp
°C
App
Temp
°C
Dew
Point
Rel
Hum
%
Delta-T
°C
Wind Press
QNH
hPa
Press
MSL
hPa
Rain
since 9 am
mm
Dir
 
Spd
km/h
Gust
km/h
Spd
kts
Gust
kts
21/11:30pm 21.5 21.9 17.3 77 2.6 ESE 11 13 6 7 - - 0.0
21/11:00pm 21.6 21.2 17.2 76 2.7 E 15 17 8 9 - - 0.0
21/10:30pm 22.8 22.9 17.5 72 3.3 ESE 13 17 7 9 - - 0.0
21/10:00pm 22.9 23.1 17.6 72 3.3 E 13 15 7 8 - - 0.0
21/09:30pm 22.8 22.6 17.7 73 3.2 E 15 20 8 11 - - 0.0
21/09:00pm 23.1 22.5 17.6 71 3.4 E 17 22 9 12 - - 0.0
21/08:30pm 23.4 22.8 17.6 70 3.6 E 17 22 9 12 - - 0.0
21/08:00pm 23.7 22.8 17.7 69 3.8 E 19 30 10 16 - - 0.0
21/07:30pm 23.9 23.3 17.6 68 3.9 ENE 17 22 9 12 - - 0.0
21/07:00pm 24.4 22.5 17.6 66 4.3 E 24 32 13 17 - - 0.0
21/06:30pm 25.4 22.7 17.6 62 4.9 E 28 35 15 19 - - 0.0
21/06:00pm 26.9 25.0 17.7 57 5.8 E 24 32 13 17 - - 0.0
21/05:30pm 27.8 26.3 17.6 53 6.5 ENE 22 30 12 16 - - 0.0
21/05:00pm 28.8 27.7 17.3 49 7.3 ENE 19 26 10 14 - - 0.0
21/04:30pm 29.6 29.7 17.4 47 7.7 NE 13 20 7 11 - - 0.0
21/04:00pm 29.2 28.6 16.7 46 7.8 ENE 15 20 8 11 - - 0.0
21/03:30pm 29.9 31.0 18.0 48 7.6 NE 9 17 5 9 - - 0.0
21/03:00pm 29.3 30.1 17.2 48 7.7 NE 9 17 5 9 - - 0.0
21/02:30pm 29.2 30.2 17.7 50 7.3 E 9 17 5 9 - - 0.0
21/02:00pm 28.6 28.6 17.2 50 7.2 ENE 13 20 7 11 - - 0.0
21/01:30pm 28.3 27.8 16.9 50 7.2 ENE 15 20 8 11 - - 0.0
21/01:00pm 28.3 29.3 16.9 50 7.2 NE 7 15 4 8 - - 0.0
21/12:30pm 28.1 28.3 16.7 50 7.1 ENE 11 20 6 11 - - 0.0
21/12:00pm 27.8 27.7 17.0 51 6.8 E 13 19 7 10 - - 0.0
21/11:30am 27.8 28.2 17.3 52 6.6 E 11 19 6 10 - - 0.0
21/11:00am 27.5 27.6 16.5 51 6.8 E 11 17 6 9 - - 0.0
21/10:30am 27.5 28.3 17.4 54 6.4 E 9 20 5 11 - - 0.0
21/10:00am 26.8 26.2 16.7 54 6.3 ENE 15 22 8 12 - - 0.0
21/09:30am 26.1 26.0 16.9 57 5.7 ENE 13 20 7 11 - - 0.0
21/09:00am 25.1 25.2 16.5 59 5.3 NE 11 15 6 8 - - 0.0
21/08:30am 25.4 26.0 17.6 62 4.9 NNE 11 20 6 11 - - 0.0
21/08:00am 24.9 26.0 17.9 65 4.4 ENE 9 15 5 8 - - 0.0
21/07:30am 23.7 23.3 17.2 67 4.0 ENE 15 20 8 11 - - 0.0
21/07:00am 23.7 23.9 17.7 69 3.8 E 13 19 7 10 - - 0.0
21/06:30am 22.6 23.9 18.4 77 2.6 E 9 13 5 7 - - 0.0
21/06:00am 21.6 23.2 17.8 79 2.4 ESE 6 7 3 4 - - 0.0
21/05:30am 20.4 22.2 17.4 83 1.8 SE 4 7 2 4 - - 0.0
21/05:00am 19.6 22.0 17.0 85 1.6 CALM 0 0 0 0 - - 0.0
21/04:30am 19.5 20.6 16.7 84 1.7 SSE 6 7 3 4 - - 0.0
21/04:00am 19.8 20.9 17.2 85 1.6 SE 7 11 4 6 - - 0.0
21/03:30am 19.8 20.9 17.2 85 1.6 ESE 7 9 4 5 - - 0.0
21/03:00am 20.2 21.3 17.2 83 1.8 ESE 7 9 4 5 - - 0.0
21/02:30am 20.3 21.6 17.5 84 1.7 ESE 7 9 4 5 - - 0.0
21/02:00am 20.1 20.8 17.1 83 1.8 ESE 9 13 5 7 - - 0.0
21/01:30am 20.4 21.5 17.2 82 2.0 SE 7 13 4 7 - - 0.0
21/01:00am 20.5 21.5 17.7 84 1.7 SE 9 13 5 7 - - 0.0
21/12:30am 20.2 20.8 16.8 81 2.1 SE 9 11 5 6 - - 0.0
21/12:00am 20.6 21.2 16.8 79 2.3 ESE 9 13 5 7 - - 0.0
 
Date/Time
EST
Temp
°C
App
Temp
°C
Dew
Point
Rel
Hum
%
Delta-T
°C
Wind Press
QNH
hPa
Press
MSL
hPa
Rain
since 9 am
mm
Dir
 
Spd
km/h
Gust
km/h
Spd
kts
Gust
kts
20/11:30pm 20.9 21.2 16.9 78 2.4 ESE 11 13 6 7 - - 0.0
20/11:00pm 21.1 21.3 16.7 76 2.7 ESE 11 13 6 7 - - 0.0
20/10:30pm 21.5 21.3 16.7 74 2.9 ESE 13 17 7 9 - - 0.0
20/10:00pm 22.2 21.6 16.7 71 3.4 ESE 15 20 8 11 - - 0.0
20/09:30pm 22.5 21.7 17.0 71 3.4 E 17 22 9 12 - - 0.0
20/09:00pm 23.2 22.1 17.2 69 3.7 E 19 24 10 13 - - 0.0
20/08:30pm 23.4 22.9 16.9 67 4.0 ESE 15 22 8 12 - - 0.0
20/08:00pm 23.5 22.5 16.5 65 4.3 E 17 20 9 11 - - 0.0
20/07:30pm 24.3 22.9 17.1 64 4.5 E 20 32 11 17 - - 0.0
20/07:00pm 24.6 23.2 17.1 63 4.7 E 20 28 11 15 - - 0.0
20/06:30pm 25.5 23.7 16.9 59 5.3 ENE 22 30 12 16 - - 0.0
20/06:00pm 26.3 23.7 16.8 56 5.9 E 26 35 14 19 - - 0.0
20/05:30pm 27.2 24.8 16.5 52 6.6 ENE 24 35 13 19 - - 0.0
20/05:00pm 28.0 26.1 16.6 50 7.1 ENE 22 33 12 18 - - 0.0
20/04:30pm 28.9 27.3 17.4 49 7.3 E 22 33 12 18 - - 0.0
20/04:00pm 29.4 27.5 17.6 49 7.5 E 24 30 13 16 - - 0.0
20/03:30pm 29.3 27.8 16.8 47 7.9 E 20 26 11 14 - - 0.0
20/03:00pm 29.4 28.1 16.9 47 7.9 E 19 28 10 15 - - 0.0
20/02:30pm 29.9 28.7 17.4 47 7.9 ENE 20 33 11 18 - - 0.0
20/02:00pm 28.8 27.1 17.3 49 7.3 ENE 22 35 12 19 - - 0.0
20/01:30pm 29.0 29.0 17.2 49 7.5 NE 13 28 7 15 - - 0.0
20/01:00pm 29.4 28.5 16.9 47 7.9 ESE 17 26 9 14 - - 0.0
20/12:30pm 29.3 29.2 17.8 50 7.3 ENE 15 24 8 13 - - 0.0
20/12:00pm 28.4 28.1 17.3 51 7.0 ENE 15 32 8 17 - - 0.0
20/11:30am 28.5 28.3 18.6 55 6.4 E 17 24 9 13 - - 0.0
20/11:00am 28.0 28.0 18.1 55 6.3 E 15 20 8 11 - - 0.0
20/10:30am 27.9 27.9 18.0 55 6.3 E 15 20 8 11 - - 0.0
20/10:00am 26.6 26.8 17.7 58 5.6 E 13 20 7 11 - - 0.0
20/09:30am 26.5 25.8 17.3 57 5.8 ENE 17 28 9 15 - - 0.0
20/09:00am 25.6 24.3 16.7 58 5.5 E 19 24 10 13 - - 0.0
20/08:30am 25.6 24.8 17.0 59 5.4 ESE 17 24 9 13 - - 0.0
20/08:00am 24.9 24.8 16.9 61 5.0 E 13 22 7 12 - - 0.0
20/07:30am 24.5 24.5 17.2 63 4.5 E 13 19 7 10 - - 0.0
20/07:00am 23.9 25.0 17.9 69 3.8 ESE 9 13 5 7 - - 0.0
20/06:30am 23.3 24.3 17.7 71 3.5 ESE 9 13 5 7 - - 0.0
20/06:00am 22.5 24.4 18.9 80 2.3 E 7 9 4 5 - - 0.0
20/05:30am 21.6 23.3 18.6 83 1.9 ENE 7 9 4 5 - - 0.0
20/05:00am 21.6 23.0 18.6 83 1.9 ENE 9 11 5 6 - - 0.0
20/04:30am 21.4 23.5 19.0 86 1.5 ENE 6 7 3 4 - - 0.0
20/04:00am 21.1 24.4 19.0 88 1.3 CALM 0 0 0 0 - - 0.0
20/03:30am 20.8 23.9 18.7 88 1.3 CALM 0 0 0 0 - - 0.0
20/03:00am 20.5 22.7 18.4 88 1.3 E 4 7 2 4 - - 0.0
20/02:30am 21.1 23.0 18.9 87 1.4 ESE 7 9 4 5 - - 0.0
20/02:00am 21.6 24.9 19.2 86 1.5 CALM 0 0 0 0 - - 0.0
20/01:30am 21.6 23.1 19.0 85 1.6 E 9 9 5 5 - - 0.0
20/01:00am 21.5 23.5 19.2 87 1.5 ESE 7 7 4 4 - - 0.0
20/12:30am 21.6 22.8 19.0 85 1.6 E 11 13 6 7 - - 0.0
20/12:00am 21.9 22.9 18.7 82 2.0 E 11 13 6 7 - - 0.0
 
Date/Time
EST
Temp
°C
App
Temp
°C
Dew
Point
Rel
Hum
%
Delta-T
°C
Wind Press
QNH
hPa
Press
MSL
hPa
Rain
since 9 am
mm
Dir
 
Spd
km/h
Gust
km/h
Spd
kts
Gust
kts
19/11:30pm 23.3 23.7 19.0 77 2.7 E 15 20 8 11 - - 0.0
19/11:00pm 23.8 23.9 18.4 72 3.4 E 15 24 8 13 - - 0.0
19/10:30pm 24.5 23.6 17.7 66 4.3 SE 19 28 10 15 - - 0.0
19/10:00pm 24.8 23.3 16.8 61 5.0 SE 20 26 11 14 - - 0.0
19/09:30pm 25.5 25.0 17.7 62 4.9 SSE 17 28 9 15 - - 0.0
19/09:00pm 26.1 26.1 20.2 70 3.9 SE 20 32 11 17 - - 0.0
19/08:30pm 26.8 26.0 18.4 60 5.4 SE 20 30 11 16 - - 0.0
19/08:00pm 25.9 27.5 17.8 61 5.1 SW 6 7 3 4 - - 0.0

Other Formats:

Comma delimited format used in spreadsheet applications
http://www.bom.gov.au/fwo/IDQ60801/IDQ60801.94562.axf

JavaScript Object Notation format (JSON) in row-major order
http://www.bom.gov.au/fwo/IDQ60801/IDQ60801.94562.json